sensor_id;sensor_type;location;lat;lon;timestamp;temperature;humidity
60293;DHT22;52402;52.670;6.750;2024-03-22T00:02:06;9.50;99.90
60293;DHT22;52402;52.670;6.750;2024-03-22T00:04:32;9.50;99.90
60293;DHT22;52402;52.670;6.750;2024-03-22T00:07:00;9.50;99.90
60293;DHT22;52402;52.670;6.750;2024-03-22T00:09:26;9.60;99.90
60293;DHT22;52402;52.670;6.750;2024-03-22T00:11:52;9.60;99.90
60293;DHT22;52402;52.670;6.750;2024-03-22T00:14:17;9.60;99.90
60293;DHT22;52402;52.670;6.750;2024-03-22T00:16:44;9.60;99.90
60293;DHT22;52402;52.670;6.750;2024-03-22T00:19:09;9.60;99.90
60293;DHT22;52402;52.670;6.750;2024-03-22T00:21:35;9.60;99.90
60293;DHT22;52402;52.670;6.750;2024-03-22T00:24:01;9.60;99.90
60293;DHT22;52402;52.670;6.750;2024-03-22T00:26:27;9.60;99.90
60293;DHT22;52402;52.670;6.750;2024-03-22T00:28:53;9.70;99.90
60293;DHT22;52402;52.670;6.750;2024-03-22T00:31:19;9.70;99.90
60293;DHT22;52402;52.670;6.750;2024-03-22T00:33:44;9.70;99.90
60293;DHT22;52402;52.670;6.750;2024-03-22T00:36:10;9.70;99.90
60293;DHT22;52402;52.670;6.750;2024-03-22T00:38:36;9.70;99.90
60293;DHT22;52402;52.670;6.750;2024-03-22T00:41:02;9.70;99.90
60293;DHT22;52402;52.670;6.750;2024-03-22T00:43:28;9.70;99.90
60293;DHT22;52402;52.670;6.750;2024-03-22T00:45:53;9.70;99.90
60293;DHT22;52402;52.670;6.750;2024-03-22T00:48:19;9.70;99.90
60293;DHT22;52402;52.670;6.750;2024-03-22T00:50:45;9.70;99.90
60293;DHT22;52402;52.670;6.750;2024-03-22T00:53:10;9.70;99.90
60293;DHT22;52402;52.670;6.750;2024-03-22T00:55:37;9.80;99.90
60293;DHT22;52402;52.670;6.750;2024-03-22T00:58:03;9.80;99.90
60293;DHT22;52402;52.670;6.750;2024-03-22T01:00:28;9.80;99.90
60293;DHT22;52402;52.670;6.750;2024-03-22T01:02:56;9.80;99.90
60293;DHT22;52402;52.670;6.750;2024-03-22T01:05:22;9.80;99.90
60293;DHT22;52402;52.670;6.750;2024-03-22T01:07:48;9.80;99.90
60293;DHT22;52402;52.670;6.750;2024-03-22T01:10:16;9.80;99.90
60293;DHT22;52402;52.670;6.750;2024-03-22T01:12:41;9.80;99.90
60293;DHT22;52402;52.670;6.750;2024-03-22T01:15:07;9.90;99.90
60293;DHT22;52402;52.670;6.750;2024-03-22T01:17:37;9.90;99.90
60293;DHT22;52402;52.670;6.750;2024-03-22T01:20:03;9.80;99.90
60293;DHT22;52402;52.670;6.750;2024-03-22T01:22:28;9.90;99.90
60293;DHT22;52402;52.670;6.750;2024-03-22T01:24:54;9.90;99.90
60293;DHT22;52402;52.670;6.750;2024-03-22T01:27:20;9.90;99.90
60293;DHT22;52402;52.670;6.750;2024-03-22T01:29:49;9.80;99.90
60293;DHT22;52402;52.670;6.750;2024-03-22T01:32:15;9.90;99.90
60293;DHT22;52402;52.670;6.750;2024-03-22T01:34:40;9.90;99.90
60293;DHT22;52402;52.670;6.750;2024-03-22T01:37:06;9.90;99.90
60293;DHT22;52402;52.670;6.750;2024-03-22T01:39:32;9.90;99.90
60293;DHT22;52402;52.670;6.750;2024-03-22T01:41:58;9.90;99.90
60293;DHT22;52402;52.670;6.750;2024-03-22T01:44:28;9.90;99.90
60293;DHT22;52402;52.670;6.750;2024-03-22T01:46:54;10.00;99.90
60293;DHT22;52402;52.670;6.750;2024-03-22T01:49:20;10.00;99.90
60293;DHT22;52402;52.670;6.750;2024-03-22T01:51:46;10.00;99.90
60293;DHT22;52402;52.670;6.750;2024-03-22T01:54:12;10.00;99.90
60293;DHT22;52402;52.670;6.750;2024-03-22T01:56:38;10.00;99.90
60293;DHT22;52402;52.670;6.750;2024-03-22T01:59:07;10.00;99.90
60293;DHT22;52402;52.670;6.750;2024-03-22T02:01:35;10.00;99.90
60293;DHT22;52402;52.670;6.750;2024-03-22T02:04:02;9.90;99.90
60293;DHT22;52402;52.670;6.750;2024-03-22T02:06:27;10.00;99.90
60293;DHT22;52402;52.670;6.750;2024-03-22T02:08:53;10.00;99.90
60293;DHT22;52402;52.670;6.750;2024-03-22T02:11:20;10.00;99.90
60293;DHT22;52402;52.670;6.750;2024-03-22T02:13:45;10.00;99.90
60293;DHT22;52402;52.670;6.750;2024-03-22T02:16:11;10.00;99.90
60293;DHT22;52402;52.670;6.750;2024-03-22T02:18:37;10.00;99.90
60293;DHT22;52402;52.670;6.750;2024-03-22T02:21:03;10.10;99.90
60293;DHT22;52402;52.670;6.750;2024-03-22T02:23:36;10.10;99.90
60293;DHT22;52402;52.670;6.750;2024-03-22T02:26:03;10.10;99.90
60293;DHT22;52402;52.670;6.750;2024-03-22T02:28:29;10.10;99.90
60293;DHT22;52402;52.670;6.750;2024-03-22T02:30:55;10.10;99.90
60293;DHT22;52402;52.670;6.750;2024-03-22T02:33:21;10.10;99.90
60293;DHT22;52402;52.670;6.750;2024-03-22T02:35:48;10.10;99.90
60293;DHT22;52402;52.670;6.750;2024-03-22T02:38:14;10.10;99.90
60293;DHT22;52402;52.670;6.750;2024-03-22T02:40:39;10.20;99.90
60293;DHT22;52402;52.670;6.750;2024-03-22T02:43:05;10.20;99.90
60293;DHT22;52402;52.670;6.750;2024-03-22T02:45:31;10.20;99.90
60293;DHT22;52402;52.670;6.750;2024-03-22T02:47:57;10.20;99.90
60293;DHT22;52402;52.670;6.750;2024-03-22T02:50:23;10.20;99.90
60293;DHT22;52402;52.670;6.750;2024-03-22T02:52:49;10.20;99.90
60293;DHT22;52402;52.670;6.750;2024-03-22T02:55:15;10.30;99.90
60293;DHT22;52402;52.670;6.750;2024-03-22T02:57:41;10.30;99.90
60293;DHT22;52402;52.670;6.750;2024-03-22T03:00:07;10.30;99.90
60293;DHT22;52402;52.670;6.750;2024-03-22T03:02:33;10.30;99.90
60293;DHT22;52402;52.670;6.750;2024-03-22T03:04:59;10.30;99.90
60293;DHT22;52402;52.670;6.750;2024-03-22T03:07:25;10.30;99.90
60293;DHT22;52402;52.670;6.750;2024-03-22T03:09:51;10.30;99.90
60293;DHT22;52402;52.670;6.750;2024-03-22T03:12:17;10.30;99.90
60293;DHT22;52402;52.670;6.750;2024-03-22T03:14:42;10.40;99.90
60293;DHT22;52402;52.670;6.750;2024-03-22T03:17:08;10.40;99.90
60293;DHT22;52402;52.670;6.750;2024-03-22T03:19:34;10.30;99.90
60293;DHT22;52402;52.670;6.750;2024-03-22T03:21:59;10.30;99.90
60293;DHT22;52402;52.670;6.750;2024-03-22T03:24:25;10.40;99.90
60293;DHT22;52402;52.670;6.750;2024-03-22T03:26:51;10.40;99.90
60293;DHT22;52402;52.670;6.750;2024-03-22T03:29:17;10.40;99.90
60293;DHT22;52402;52.670;6.750;2024-03-22T03:31:43;10.40;99.90
60293;DHT22;52402;52.670;6.750;2024-03-22T03:34:08;10.40;99.90
60293;DHT22;52402;52.670;6.750;2024-03-22T03:36:34;10.40;99.90
60293;DHT22;52402;52.670;6.750;2024-03-22T03:39:00;10.40;99.90
60293;DHT22;52402;52.670;6.750;2024-03-22T03:41:25;10.40;99.90
60293;DHT22;52402;52.670;6.750;2024-03-22T03:43:51;10.40;99.90
60293;DHT22;52402;52.670;6.750;2024-03-22T03:46:17;10.40;99.90
60293;DHT22;52402;52.670;6.750;2024-03-22T03:48:42;10.40;99.90
60293;DHT22;52402;52.670;6.750;2024-03-22T03:51:08;10.40;99.90
60293;DHT22;52402;52.670;6.750;2024-03-22T03:53:34;10.50;99.90
60293;DHT22;52402;52.670;6.750;2024-03-22T03:56:00;10.50;99.90
60293;DHT22;52402;52.670;6.750;2024-03-22T03:58:26;10.50;99.90
60293;DHT22;52402;52.670;6.750;2024-03-22T04:00:51;10.40;99.90
60293;DHT22;52402;52.670;6.750;2024-03-22T04:03:17;10.50;99.90
60293;DHT22;52402;52.670;6.750;2024-03-22T04:05:43;10.50;99.90
60293;DHT22;52402;52.670;6.750;2024-03-22T04:08:09;10.50;99.90
60293;DHT22;52402;52.670;6.750;2024-03-22T04:10:34;10.50;99.90
60293;DHT22;52402;52.670;6.750;2024-03-22T04:13:00;10.50;99.90
60293;DHT22;52402;52.670;6.750;2024-03-22T04:15:26;10.40;99.90
60293;DHT22;52402;52.670;6.750;2024-03-22T04:17:51;10.40;99.90
60293;DHT22;52402;52.670;6.750;2024-03-22T04:20:17;10.40;99.90
60293;DHT22;52402;52.670;6.750;2024-03-22T04:22:45;10.40;99.90
60293;DHT22;52402;52.670;6.750;2024-03-22T04:25:11;10.40;99.90
60293;DHT22;52402;52.670;6.750;2024-03-22T04:27:36;10.50;99.90
60293;DHT22;52402;52.670;6.750;2024-03-22T04:30:02;10.50;99.90
60293;DHT22;52402;52.670;6.750;2024-03-22T04:32:28;10.50;99.90
60293;DHT22;52402;52.670;6.750;2024-03-22T04:34:54;10.50;99.90
60293;DHT22;52402;52.670;6.750;2024-03-22T04:37:20;10.50;99.90
60293;DHT22;52402;52.670;6.750;2024-03-22T04:39:46;10.50;99.90
60293;DHT22;52402;52.670;6.750;2024-03-22T04:42:12;10.50;99.90
60293;DHT22;52402;52.670;6.750;2024-03-22T04:44:38;10.50;99.90
60293;DHT22;52402;52.670;6.750;2024-03-22T04:47:03;10.50;99.90
60293;DHT22;52402;52.670;6.750;2024-03-22T04:49:29;10.60;99.90
60293;DHT22;52402;52.670;6.750;2024-03-22T04:51:56;10.50;99.90
60293;DHT22;52402;52.670;6.750;2024-03-22T04:54:22;10.60;99.90
60293;DHT22;52402;52.670;6.750;2024-03-22T04:56:48;10.60;99.90
60293;DHT22;52402;52.670;6.750;2024-03-22T04:59:13;10.60;99.90
60293;DHT22;52402;52.670;6.750;2024-03-22T05:01:43;10.60;99.90
60293;DHT22;52402;52.670;6.750;2024-03-22T05:04:10;10.60;99.90
60293;DHT22;52402;52.670;6.750;2024-03-22T05:06:35;10.60;99.90
60293;DHT22;52402;52.670;6.750;2024-03-22T05:09:01;10.60;99.90
60293;DHT22;52402;52.670;6.750;2024-03-22T05:11:31;10.60;99.90
60293;DHT22;52402;52.670;6.750;2024-03-22T05:13:57;10.60;99.90
60293;DHT22;52402;52.670;6.750;2024-03-22T05:16:23;10.70;99.90
60293;DHT22;52402;52.670;6.750;2024-03-22T05:18:49;10.60;99.90
60293;DHT22;52402;52.670;6.750;2024-03-22T05:21:15;10.60;99.90
60293;DHT22;52402;52.670;6.750;2024-03-22T05:23:40;10.60;99.90
60293;DHT22;52402;52.670;6.750;2024-03-22T05:26:06;10.60;99.90
60293;DHT22;52402;52.670;6.750;2024-03-22T05:28:32;10.60;99.90
60293;DHT22;52402;52.670;6.750;2024-03-22T05:30:59;10.60;99.90
60293;DHT22;52402;52.670;6.750;2024-03-22T05:33:24;10.60;99.90
60293;DHT22;52402;52.670;6.750;2024-03-22T05:35:52;10.60;99.90
60293;DHT22;52402;52.670;6.750;2024-03-22T05:38:18;10.60;99.90
60293;DHT22;52402;52.670;6.750;2024-03-22T05:40:44;10.60;99.90
60293;DHT22;52402;52.670;6.750;2024-03-22T05:43:13;10.60;99.90
60293;DHT22;52402;52.670;6.750;2024-03-22T05:45:39;10.60;99.90
60293;DHT22;52402;52.670;6.750;2024-03-22T05:48:05;10.60;99.90
60293;DHT22;52402;52.670;6.750;2024-03-22T05:50:31;10.60;99.90
60293;DHT22;52402;52.670;6.750;2024-03-22T05:52:57;10.60;99.90
60293;DHT22;52402;52.670;6.750;2024-03-22T05:55:23;10.60;99.90
60293;DHT22;52402;52.670;6.750;2024-03-22T05:57:49;10.60;99.90
60293;DHT22;52402;52.670;6.750;2024-03-22T06:00:15;10.60;99.90
60293;DHT22;52402;52.670;6.750;2024-03-22T06:02:41;10.60;99.90
60293;DHT22;52402;52.670;6.750;2024-03-22T06:05:06;10.60;99.90
60293;DHT22;52402;52.670;6.750;2024-03-22T06:07:32;10.60;99.90
60293;DHT22;52402;52.670;6.750;2024-03-22T06:10:06;10.50;99.90
60293;DHT22;52402;52.670;6.750;2024-03-22T06:12:32;10.50;99.90
60293;DHT22;52402;52.670;6.750;2024-03-22T06:14:57;10.50;99.90
60293;DHT22;52402;52.670;6.750;2024-03-22T06:17:23;10.40;99.90
60293;DHT22;52402;52.670;6.750;2024-03-22T06:19:49;10.40;99.90
60293;DHT22;52402;52.670;6.750;2024-03-22T06:22:14;10.40;99.90
60293;DHT22;52402;52.670;6.750;2024-03-22T06:24:40;10.40;99.90
60293;DHT22;52402;52.670;6.750;2024-03-22T06:27:06;10.40;99.90
60293;DHT22;52402;52.670;6.750;2024-03-22T06:29:32;10.40;99.90
60293;DHT22;52402;52.670;6.750;2024-03-22T06:31:58;10.40;99.90
60293;DHT22;52402;52.670;6.750;2024-03-22T06:34:24;10.30;99.90
60293;DHT22;52402;52.670;6.750;2024-03-22T06:36:55;10.40;99.90
60293;DHT22;52402;52.670;6.750;2024-03-22T06:39:21;10.30;99.90
60293;DHT22;52402;52.670;6.750;2024-03-22T06:41:46;10.40;99.90
60293;DHT22;52402;52.670;6.750;2024-03-22T06:44:12;10.30;99.90
60293;DHT22;52402;52.670;6.750;2024-03-22T06:46:39;10.30;99.90
60293;DHT22;52402;52.670;6.750;2024-03-22T06:49:05;10.30;99.90
60293;DHT22;52402;52.670;6.750;2024-03-22T06:51:31;10.30;99.90
60293;DHT22;52402;52.670;6.750;2024-03-22T06:53:57;10.30;99.90
60293;DHT22;52402;52.670;6.750;2024-03-22T06:56:22;10.30;99.90
60293;DHT22;52402;52.670;6.750;2024-03-22T06:58:58;10.30;99.90
60293;DHT22;52402;52.670;6.750;2024-03-22T07:04:19;10.30;99.90
60293;DHT22;52402;52.670;6.750;2024-03-22T07:06:53;10.30;99.90
60293;DHT22;52402;52.670;6.750;2024-03-22T07:09:18;10.30;99.90
60293;DHT22;52402;52.670;6.750;2024-03-22T07:11:45;10.30;99.90
60293;DHT22;52402;52.670;6.750;2024-03-22T07:14:10;10.40;99.90
60293;DHT22;52402;52.670;6.750;2024-03-22T07:16:36;10.40;99.90
60293;DHT22;52402;52.670;6.750;2024-03-22T07:19:02;10.40;99.90
60293;DHT22;52402;52.670;6.750;2024-03-22T07:21:29;10.40;99.90
60293;DHT22;52402;52.670;6.750;2024-03-22T07:23:55;10.40;99.90
60293;DHT22;52402;52.670;6.750;2024-03-22T07:26:21;10.40;99.90
60293;DHT22;52402;52.670;6.750;2024-03-22T07:28:46;10.40;99.90
60293;DHT22;52402;52.670;6.750;2024-03-22T07:31:12;10.30;99.90
60293;DHT22;52402;52.670;6.750;2024-03-22T07:33:39;10.40;99.90
60293;DHT22;52402;52.670;6.750;2024-03-22T07:36:05;10.40;99.90
60293;DHT22;52402;52.670;6.750;2024-03-22T07:38:31;10.40;99.90
60293;DHT22;52402;52.670;6.750;2024-03-22T07:40:57;10.50;99.90
60293;DHT22;52402;52.670;6.750;2024-03-22T07:43:23;10.40;99.90
60293;DHT22;52402;52.670;6.750;2024-03-22T07:45:49;10.50;99.90
60293;DHT22;52402;52.670;6.750;2024-03-22T07:48:14;10.50;99.90
60293;DHT22;52402;52.670;6.750;2024-03-22T07:50:40;10.50;99.90
60293;DHT22;52402;52.670;6.750;2024-03-22T07:53:06;10.60;99.90
60293;DHT22;52402;52.670;6.750;2024-03-22T07:55:31;10.60;99.90
60293;DHT22;52402;52.670;6.750;2024-03-22T07:57:57;10.60;99.90
60293;DHT22;52402;52.670;6.750;2024-03-22T08:00:24;10.60;99.90
60293;DHT22;52402;52.670;6.750;2024-03-22T08:02:52;10.60;99.90
60293;DHT22;52402;52.670;6.750;2024-03-22T08:05:18;10.60;99.90
60293;DHT22;52402;52.670;6.750;2024-03-22T08:07:45;10.60;99.90
60293;DHT22;52402;52.670;6.750;2024-03-22T08:10:10;10.60;99.90
60293;DHT22;52402;52.670;6.750;2024-03-22T08:12:36;10.60;99.90
60293;DHT22;52402;52.670;6.750;2024-03-22T08:15:01;10.60;99.90
60293;DHT22;52402;52.670;6.750;2024-03-22T08:17:28;10.60;99.90
60293;DHT22;52402;52.670;6.750;2024-03-22T08:19:54;10.60;99.90
60293;DHT22;52402;52.670;6.750;2024-03-22T08:22:19;10.60;99.90
60293;DHT22;52402;52.670;6.750;2024-03-22T08:24:45;10.60;99.90
60293;DHT22;52402;52.670;6.750;2024-03-22T08:27:11;10.60;99.90
60293;DHT22;52402;52.670;6.750;2024-03-22T08:29:37;10.60;99.90
60293;DHT22;52402;52.670;6.750;2024-03-22T08:32:03;10.70;99.90
60293;DHT22;52402;52.670;6.750;2024-03-22T08:34:30;10.70;99.90
60293;DHT22;52402;52.670;6.750;2024-03-22T08:36:57;10.70;99.90
60293;DHT22;52402;52.670;6.750;2024-03-22T08:39:22;10.70;99.90
60293;DHT22;52402;52.670;6.750;2024-03-22T08:41:51;10.70;99.90
60293;DHT22;52402;52.670;6.750;2024-03-22T08:44:16;10.70;99.90
60293;DHT22;52402;52.670;6.750;2024-03-22T08:46:42;10.70;99.90
60293;DHT22;52402;52.670;6.750;2024-03-22T08:49:08;10.70;99.90
60293;DHT22;52402;52.670;6.750;2024-03-22T08:51:33;10.70;99.90
60293;DHT22;52402;52.670;6.750;2024-03-22T08:53:59;10.70;99.90
60293;DHT22;52402;52.670;6.750;2024-03-22T08:56:26;10.70;99.90
60293;DHT22;52402;52.670;6.750;2024-03-22T08:58:52;10.70;99.90
60293;DHT22;52402;52.670;6.750;2024-03-22T09:01:18;10.70;99.90
60293;DHT22;52402;52.670;6.750;2024-03-22T09:03:43;10.70;99.90
60293;DHT22;52402;52.670;6.750;2024-03-22T09:06:12;10.70;99.90
60293;DHT22;52402;52.670;6.750;2024-03-22T09:08:38;10.70;99.90
60293;DHT22;52402;52.670;6.750;2024-03-22T09:11:03;10.70;99.90
60293;DHT22;52402;52.670;6.750;2024-03-22T09:13:29;10.70;99.90
60293;DHT22;52402;52.670;6.750;2024-03-22T09:15:58;10.70;99.90
60293;DHT22;52402;52.670;6.750;2024-03-22T09:18:24;10.70;99.90
60293;DHT22;52402;52.670;6.750;2024-03-22T09:20:50;10.70;99.90
60293;DHT22;52402;52.670;6.750;2024-03-22T09:23:16;10.60;99.90
60293;DHT22;52402;52.670;6.750;2024-03-22T09:25:41;10.60;99.90
60293;DHT22;52402;52.670;6.750;2024-03-22T09:28:07;10.50;99.90
60293;DHT22;52402;52.670;6.750;2024-03-22T09:30:32;10.50;99.90
60293;DHT22;52402;52.670;6.750;2024-03-22T09:32:58;10.50;99.90
60293;DHT22;52402;52.670;6.750;2024-03-22T09:35:24;10.40;99.90
60293;DHT22;52402;52.670;6.750;2024-03-22T09:37:49;10.40;99.90
60293;DHT22;52402;52.670;6.750;2024-03-22T09:40:15;10.40;99.90
60293;DHT22;52402;52.670;6.750;2024-03-22T09:42:42;10.40;99.90
60293;DHT22;52402;52.670;6.750;2024-03-22T09:45:09;10.40;99.90
60293;DHT22;52402;52.670;6.750;2024-03-22T09:47:36;10.40;99.90
60293;DHT22;52402;52.670;6.750;2024-03-22T09:50:06;10.40;99.90
60293;DHT22;52402;52.670;6.750;2024-03-22T09:52:33;10.40;99.90
60293;DHT22;52402;52.670;6.750;2024-03-22T09:54:59;10.40;99.90
60293;DHT22;52402;52.670;6.750;2024-03-22T09:57:25;10.40;99.90
60293;DHT22;52402;52.670;6.750;2024-03-22T09:59:51;10.40;99.90
60293;DHT22;52402;52.670;6.750;2024-03-22T10:02:17;10.50;99.90
60293;DHT22;52402;52.670;6.750;2024-03-22T10:04:43;10.50;99.90
60293;DHT22;52402;52.670;6.750;2024-03-22T10:07:09;10.50;99.90
60293;DHT22;52402;52.670;6.750;2024-03-22T10:09:36;10.50;99.90
60293;DHT22;52402;52.670;6.750;2024-03-22T10:12:03;10.50;99.90
60293;DHT22;52402;52.670;6.750;2024-03-22T10:14:29;10.50;99.90
60293;DHT22;52402;52.670;6.750;2024-03-22T10:16:56;10.50;99.90
60293;DHT22;52402;52.670;6.750;2024-03-22T10:19:22;10.50;99.90
60293;DHT22;52402;52.670;6.750;2024-03-22T10:22:04;10.50;99.90
60293;DHT22;52402;52.670;6.750;2024-03-22T10:24:31;10.60;99.90
60293;DHT22;52402;52.670;6.750;2024-03-22T10:26:58;10.50;99.90
60293;DHT22;52402;52.670;6.750;2024-03-22T10:29:24;10.50;99.90
60293;DHT22;52402;52.670;6.750;2024-03-22T10:31:54;10.50;99.90
60293;DHT22;52402;52.670;6.750;2024-03-22T10:34:24;10.50;99.90
60293;DHT22;52402;52.670;6.750;2024-03-22T10:36:50;10.60;99.90
60293;DHT22;52402;52.670;6.750;2024-03-22T10:39:19;10.60;99.90
60293;DHT22;52402;52.670;6.750;2024-03-22T10:41:45;10.60;99.90
60293;DHT22;52402;52.670;6.750;2024-03-22T10:44:12;10.50;99.90
60293;DHT22;52402;52.670;6.750;2024-03-22T10:46:38;10.50;99.90
60293;DHT22;52402;52.670;6.750;2024-03-22T10:49:09;10.60;99.90
60293;DHT22;52402;52.670;6.750;2024-03-22T10:51:36;10.60;99.90
60293;DHT22;52402;52.670;6.750;2024-03-22T10:54:03;10.50;99.90
60293;DHT22;52402;52.670;6.750;2024-03-22T10:56:31;10.50;99.90
60293;DHT22;52402;52.670;6.750;2024-03-22T10:58:56;10.50;99.90
60293;DHT22;52402;52.670;6.750;2024-03-22T11:01:23;10.50;99.90
60293;DHT22;52402;52.670;6.750;2024-03-22T11:03:49;10.50;99.90
60293;DHT22;52402;52.670;6.750;2024-03-22T11:06:19;10.50;99.90
60293;DHT22;52402;52.670;6.750;2024-03-22T11:08:48;10.50;99.90
60293;DHT22;52402;52.670;6.750;2024-03-22T11:11:14;10.50;99.90
60293;DHT22;52402;52.670;6.750;2024-03-22T11:13:43;10.50;99.90
60293;DHT22;52402;52.670;6.750;2024-03-22T11:16:09;10.60;99.90
60293;DHT22;52402;52.670;6.750;2024-03-22T11:18:35;10.60;99.90
60293;DHT22;52402;52.670;6.750;2024-03-22T11:21:01;10.60;99.90
60293;DHT22;52402;52.670;6.750;2024-03-22T11:23:28;10.60;99.90
60293;DHT22;52402;52.670;6.750;2024-03-22T11:25:54;10.60;99.90
60293;DHT22;52402;52.670;6.750;2024-03-22T11:28:19;10.60;99.90
60293;DHT22;52402;52.670;6.750;2024-03-22T11:30:45;10.60;99.90
60293;DHT22;52402;52.670;6.750;2024-03-22T11:33:11;10.60;99.90
60293;DHT22;52402;52.670;6.750;2024-03-22T11:35:36;10.50;99.90
60293;DHT22;52402;52.670;6.750;2024-03-22T11:38:02;10.60;99.90
60293;DHT22;52402;52.670;6.750;2024-03-22T11:40:30;10.50;99.90
60293;DHT22;52402;52.670;6.750;2024-03-22T11:42:57;10.50;99.90
60293;DHT22;52402;52.670;6.750;2024-03-22T11:45:23;10.50;99.90
60293;DHT22;52402;52.670;6.750;2024-03-22T11:47:50;10.50;99.90
60293;DHT22;52402;52.670;6.750;2024-03-22T11:50:16;10.50;99.90
60293;DHT22;52402;52.670;6.750;2024-03-22T11:52:43;10.40;99.90
60293;DHT22;52402;52.670;6.750;2024-03-22T11:55:10;10.40;99.90
60293;DHT22;52402;52.670;6.750;2024-03-22T11:57:36;10.40;99.90
60293;DHT22;52402;52.670;6.750;2024-03-22T12:00:03;10.40;99.90
60293;DHT22;52402;52.670;6.750;2024-03-22T12:02:32;10.50;99.90
60293;DHT22;52402;52.670;6.750;2024-03-22T12:04:57;10.50;99.90
60293;DHT22;52402;52.670;6.750;2024-03-22T12:07:24;10.50;99.90
60293;DHT22;52402;52.670;6.750;2024-03-22T12:09:49;10.50;99.90
60293;DHT22;52402;52.670;6.750;2024-03-22T12:12:15;10.60;99.90
60293;DHT22;52402;52.670;6.750;2024-03-22T12:14:41;10.60;99.90
60293;DHT22;52402;52.670;6.750;2024-03-22T12:17:07;10.60;99.90
60293;DHT22;52402;52.670;6.750;2024-03-22T12:19:33;10.70;99.90
60293;DHT22;52402;52.670;6.750;2024-03-22T12:21:59;10.70;99.90
60293;DHT22;52402;52.670;6.750;2024-03-22T12:24:25;10.70;99.90
60293;DHT22;52402;52.670;6.750;2024-03-22T12:26:52;10.70;99.90
60293;DHT22;52402;52.670;6.750;2024-03-22T12:29:19;10.70;99.90
60293;DHT22;52402;52.670;6.750;2024-03-22T12:31:44;10.60;99.90
60293;DHT22;52402;52.670;6.750;2024-03-22T12:34:10;10.70;99.90
60293;DHT22;52402;52.670;6.750;2024-03-22T12:36:36;10.60;99.90
60293;DHT22;52402;52.670;6.750;2024-03-22T12:39:02;10.70;99.90
60293;DHT22;52402;52.670;6.750;2024-03-22T12:41:28;10.70;99.90
60293;DHT22;52402;52.670;6.750;2024-03-22T12:43:55;10.70;99.90
60293;DHT22;52402;52.670;6.750;2024-03-22T12:46:21;10.70;99.90
60293;DHT22;52402;52.670;6.750;2024-03-22T12:48:46;10.80;99.90
60293;DHT22;52402;52.670;6.750;2024-03-22T12:51:12;10.80;99.90
60293;DHT22;52402;52.670;6.750;2024-03-22T12:53:38;10.80;99.90
60293;DHT22;52402;52.670;6.750;2024-03-22T12:56:04;10.90;99.90
60293;DHT22;52402;52.670;6.750;2024-03-22T12:58:33;10.90;99.90
60293;DHT22;52402;52.670;6.750;2024-03-22T13:00:58;10.90;99.90
60293;DHT22;52402;52.670;6.750;2024-03-22T13:03:29;11.00;99.90
60293;DHT22;52402;52.670;6.750;2024-03-22T13:05:55;11.00;99.90
60293;DHT22;52402;52.670;6.750;2024-03-22T13:08:20;11.00;99.90
60293;DHT22;52402;52.670;6.750;2024-03-22T13:10:46;11.10;99.90
60293;DHT22;52402;52.670;6.750;2024-03-22T13:13:13;11.20;99.90
60293;DHT22;52402;52.670;6.750;2024-03-22T13:15:41;11.20;99.90
60293;DHT22;52402;52.670;6.750;2024-03-22T13:18:07;11.10;99.90
60293;DHT22;52402;52.670;6.750;2024-03-22T13:20:35;11.20;99.90
60293;DHT22;52402;52.670;6.750;2024-03-22T13:23:01;11.30;99.90
60293;DHT22;52402;52.670;6.750;2024-03-22T13:25:27;11.20;99.90
60293;DHT22;52402;52.670;6.750;2024-03-22T13:27:53;11.20;99.90
60293;DHT22;52402;52.670;6.750;2024-03-22T13:30:18;11.10;99.90
60293;DHT22;52402;52.670;6.750;2024-03-22T13:32:44;11.00;99.90
60293;DHT22;52402;52.670;6.750;2024-03-22T13:35:10;10.70;99.90
60293;DHT22;52402;52.670;6.750;2024-03-22T13:37:36;10.70;99.90
60293;DHT22;52402;52.670;6.750;2024-03-22T13:40:01;10.60;99.90
60293;DHT22;52402;52.670;6.750;2024-03-22T13:42:27;10.40;99.90
60293;DHT22;52402;52.670;6.750;2024-03-22T13:44:52;10.20;99.90
60293;DHT22;52402;52.670;6.750;2024-03-22T13:47:18;10.20;99.90
60293;DHT22;52402;52.670;6.750;2024-03-22T13:49:44;10.10;99.90
60293;DHT22;52402;52.670;6.750;2024-03-22T13:52:13;10.00;99.90
60293;DHT22;52402;52.670;6.750;2024-03-22T13:54:38;9.90;99.90
60293;DHT22;52402;52.670;6.750;2024-03-22T13:57:04;9.90;99.90
60293;DHT22;52402;52.670;6.750;2024-03-22T13:59:30;9.80;99.90
60293;DHT22;52402;52.670;6.750;2024-03-22T14:01:56;9.80;99.90
60293;DHT22;52402;52.670;6.750;2024-03-22T14:04:25;9.70;99.90
60293;DHT22;52402;52.670;6.750;2024-03-22T14:06:51;9.70;99.90
60293;DHT22;52402;52.670;6.750;2024-03-22T14:09:17;9.70;99.90
60293;DHT22;52402;52.670;6.750;2024-03-22T14:11:43;9.70;99.90
60293;DHT22;52402;52.670;6.750;2024-03-22T14:14:09;9.60;99.90
60293;DHT22;52402;52.670;6.750;2024-03-22T14:16:40;9.60;99.90
60293;DHT22;52402;52.670;6.750;2024-03-22T14:19:07;9.70;99.90
60293;DHT22;52402;52.670;6.750;2024-03-22T14:21:34;9.70;99.90
60293;DHT22;52402;52.670;6.750;2024-03-22T14:23:59;9.70;99.90
60293;DHT22;52402;52.670;6.750;2024-03-22T14:26:25;9.80;99.90
60293;DHT22;52402;52.670;6.750;2024-03-22T14:28:51;9.70;99.90
60293;DHT22;52402;52.670;6.750;2024-03-22T14:31:18;9.70;99.90
60293;DHT22;52402;52.670;6.750;2024-03-22T14:33:43;9.70;99.90
60293;DHT22;52402;52.670;6.750;2024-03-22T14:36:09;9.80;99.90
60293;DHT22;52402;52.670;6.750;2024-03-22T14:38:36;9.80;99.90
60293;DHT22;52402;52.670;6.750;2024-03-22T14:41:02;9.90;99.90
60293;DHT22;52402;52.670;6.750;2024-03-22T14:43:28;9.80;99.90
60293;DHT22;52402;52.670;6.750;2024-03-22T14:45:54;9.90;99.90
60293;DHT22;52402;52.670;6.750;2024-03-22T14:48:23;10.00;99.90
60293;DHT22;52402;52.670;6.750;2024-03-22T14:50:51;10.00;99.90
60293;DHT22;52402;52.670;6.750;2024-03-22T14:53:19;10.00;99.90
60293;DHT22;52402;52.670;6.750;2024-03-22T14:58:24;10.10;99.90
60293;DHT22;52402;52.670;6.750;2024-03-22T15:00:55;10.10;99.90
60293;DHT22;52402;52.670;6.750;2024-03-22T15:03:21;10.10;99.90
60293;DHT22;52402;52.670;6.750;2024-03-22T15:05:49;10.20;99.90
60293;DHT22;52402;52.670;6.750;2024-03-22T15:08:15;10.20;99.90
60293;DHT22;52402;52.670;6.750;2024-03-22T15:10:41;10.20;99.90
60293;DHT22;52402;52.670;6.750;2024-03-22T15:13:06;10.20;99.90
60293;DHT22;52402;52.670;6.750;2024-03-22T15:15:33;10.20;99.90
60293;DHT22;52402;52.670;6.750;2024-03-22T15:17:59;10.20;99.90
60293;DHT22;52402;52.670;6.750;2024-03-22T15:20:24;10.20;99.90
60293;DHT22;52402;52.670;6.750;2024-03-22T15:22:53;10.20;99.90
60293;DHT22;52402;52.670;6.750;2024-03-22T15:25:18;10.30;99.90
60293;DHT22;52402;52.670;6.750;2024-03-22T15:27:44;10.30;99.90
60293;DHT22;52402;52.670;6.750;2024-03-22T15:30:10;10.20;99.90
60293;DHT22;52402;52.670;6.750;2024-03-22T15:32:36;10.20;99.90